createdAt,value
2024-02-14T00:00:16.092Z,96698.41
2024-02-14T00:02:45.520Z,96688.28
2024-02-14T00:05:13.098Z,96690.31
2024-02-14T00:07:41.044Z,96688.28
2024-02-14T00:10:08.258Z,96692.75
2024-02-14T00:12:36.690Z,96691.13
2024-02-14T00:15:04.870Z,96692.75
2024-02-14T00:17:31.807Z,96684.22
2024-02-14T00:19:58.665Z,96692.88
2024-02-14T00:22:25.842Z,96696.09
2024-02-14T00:24:52.706Z,96698.75
2024-02-14T00:27:19.465Z,96695.09
2024-02-14T00:29:48.010Z,96691.41
2024-02-14T00:32:15.032Z,96691.63
2024-02-14T00:34:42.158Z,96686.97
2024-02-14T00:37:09.479Z,96698.59
2024-02-14T00:39:36.224Z,96697.41
2024-02-14T00:42:03.206Z,96713.91
2024-02-14T00:44:30.019Z,96715.31
2024-02-14T00:47:03.722Z,96709.38
2024-02-14T00:49:30.760Z,96710.75
2024-02-14T00:51:57.598Z,96714.44
2024-02-14T00:54:24.275Z,96715.63
2024-02-14T00:56:51.044Z,96713.59
2024-02-14T00:59:18.062Z,96713.16
2024-02-14T01:01:45.927Z,96716.81
2024-02-14T01:04:12.942Z,96714.16
2024-02-14T01:06:39.904Z,96717.41
2024-02-14T01:09:06.723Z,96716.22
2024-02-14T01:11:33.559Z,96721.75
2024-02-14T01:14:00.332Z,96715.19
2024-02-14T01:16:27.496Z,96712.59
2024-02-14T01:18:54.602Z,96708.06
2024-02-14T01:21:21.381Z,96712.13
2024-02-14T01:23:48.177Z,96711.47
2024-02-14T01:26:15.681Z,96710.47
2024-02-14T01:28:44.857Z,96712.06
2024-02-14T01:31:13.149Z,96705.31
2024-02-14T01:33:41.519Z,96707.75
2024-02-14T01:36:08.500Z,96706.53
2024-02-14T01:38:36.924Z,96708.72
2024-02-14T01:41:05.099Z,96706.66
2024-02-14T01:43:32.329Z,96710.34
2024-02-14T01:46:08.997Z,96706.66
2024-02-14T01:48:36.558Z,96702.19
2024-02-14T01:51:04.816Z,96706.88
2024-02-14T01:53:33.164Z,96703.88
2024-02-14T01:56:01.239Z,96707.53
2024-02-14T01:58:29.915Z,96704.91
2024-02-14T02:00:58.114Z,96711.59
2024-02-14T02:03:25.933Z,96705.91
2024-02-14T02:05:56.642Z,96707.97
2024-02-14T02:08:23.671Z,96717.53
2024-02-14T02:10:50.714Z,96708.56
2024-02-14T02:13:17.785Z,96708.34
2024-02-14T02:15:46.082Z,96709.75
2024-02-14T02:18:13.024Z,96712.59
2024-02-14T02:20:40.225Z,96701.66
2024-02-14T02:23:07.115Z,96710.81
2024-02-14T02:25:33.876Z,96705.53
2024-02-14T02:28:00.971Z,96708.41
2024-02-14T02:30:28.616Z,96706.34
2024-02-14T02:32:55.325Z,96715.91
2024-02-14T02:35:22.324Z,96713.31
2024-02-14T02:37:51.828Z,96714.19
2024-02-14T02:40:18.900Z,96715.34
2024-02-14T02:42:48.636Z,96718.63
2024-02-14T02:45:15.408Z,96724.25
2024-02-14T02:47:42.166Z,96720.59
2024-02-14T02:50:09.273Z,96720.38
2024-02-14T02:52:36.192Z,96719.81
2024-02-14T02:55:03.205Z,96720.63
2024-02-14T02:57:30.715Z,96725.97
2024-02-14T02:59:59.074Z,96724.41
2024-02-14T03:02:26.939Z,96728.81
2024-02-14T03:04:54.314Z,96723.06
2024-02-14T03:07:22.033Z,96726.09
2024-02-14T03:09:48.876Z,96732.94
2024-02-14T03:12:17.675Z,96734.50
2024-02-14T03:14:45.482Z,96728.94
2024-02-14T03:17:12.547Z,96737.84
2024-02-14T03:19:40.417Z,96738.28
2024-02-14T03:22:10.415Z,96737.84
2024-02-14T03:24:38.457Z,96737.19
2024-02-14T03:27:06.534Z,96731.84
2024-02-14T03:29:33.656Z,96736.03
2024-02-14T03:32:05.301Z,96735.16
2024-02-14T03:34:35.054Z,96737.03
2024-02-14T03:37:03.396Z,96734.38
2024-02-14T03:39:30.843Z,96734.16
2024-02-14T03:41:57.940Z,96736.38
2024-02-14T03:44:24.597Z,96736.94
2024-02-14T03:46:51.330Z,96739.22
2024-02-14T03:49:18.353Z,96740.47
2024-02-14T03:51:45.194Z,96745.38
2024-02-14T03:54:13.224Z,96734.19
2024-02-14T03:56:40.128Z,96740.53
2024-02-14T03:59:07.251Z,96742.75
2024-02-14T04:01:34.329Z,96737.25
2024-02-14T04:04:01.390Z,96730.91
2024-02-14T04:06:28.873Z,96735.16
2024-02-14T04:08:55.719Z,96738.63
2024-02-14T04:11:22.460Z,96739.44
2024-02-14T04:13:49.139Z,96735.75
2024-02-14T04:16:15.797Z,96735.97
2024-02-14T04:18:44.001Z,96738.84
2024-02-14T04:21:11.171Z,96735.97
2024-02-14T04:23:37.989Z,96741.47
2024-02-14T04:26:04.928Z,96741.25
2024-02-14T04:28:31.618Z,96742.66
2024-02-14T04:30:58.966Z,96743.81
2024-02-14T04:33:26.833Z,96744.81
2024-02-14T04:35:53.654Z,96747.00
2024-02-14T04:38:21.011Z,96737.41
2024-02-14T04:40:47.709Z,96743.50
2024-02-14T04:43:14.557Z,96738.06
2024-02-14T04:45:41.312Z,96744.38
2024-02-14T04:48:09.289Z,96738.28
2024-02-14T04:50:36.256Z,96748.78
2024-02-14T04:53:02.975Z,96735.69
2024-02-14T04:55:30.418Z,96732.16
2024-02-14T04:57:57.117Z,96726.59
2024-02-14T05:00:23.969Z,96732.59
2024-02-14T05:02:50.862Z,96727.81
2024-02-14T05:05:17.948Z,96729.81
2024-02-14T05:07:44.732Z,96732.91
2024-02-14T05:10:11.537Z,96722.31
2024-02-14T05:12:38.504Z,96723.94
2024-02-14T05:15:05.874Z,96726.72
2024-02-14T05:17:32.842Z,96714.88
2024-02-14T05:19:59.757Z,96723.19
2024-02-14T05:22:26.991Z,96718.44
2024-02-14T05:24:53.673Z,96723.97
2024-02-14T05:27:21.091Z,96716.13
2024-02-14T05:29:47.769Z,96718.13
2024-02-14T05:32:15.130Z,96718.34
2024-02-14T05:34:41.860Z,96710.19
2024-02-14T05:37:09.171Z,96718.34
2024-02-14T05:39:35.870Z,96725.31
2024-02-14T05:42:02.660Z,96730.25
2024-02-14T05:44:31.403Z,96727.91
2024-02-14T05:46:58.244Z,96734.38
2024-02-14T05:49:25.965Z,96735.53
2024-02-14T05:51:54.558Z,96729.59
2024-02-14T05:54:21.266Z,96733.63
2024-02-14T05:56:48.599Z,96736.28
2024-02-14T05:59:15.424Z,96734.66
2024-02-14T06:01:42.075Z,96740.38
2024-02-14T06:04:08.850Z,96744.28
2024-02-14T06:06:35.698Z,96748.19
2024-02-14T06:09:02.516Z,96752.88
2024-02-14T06:11:29.188Z,96751.47
2024-02-14T06:13:55.946Z,96756.41
2024-02-14T06:16:22.598Z,96755.63
2024-02-14T06:18:49.659Z,96754.22
2024-02-14T06:21:16.522Z,96748.34
2024-02-14T06:23:43.398Z,96758.94
2024-02-14T06:26:10.077Z,96761.00
2024-02-14T06:28:36.807Z,96759.59
2024-02-14T06:31:03.523Z,96769.03
2024-02-14T06:33:30.567Z,96775.53
2024-02-14T06:35:57.694Z,96777.59
2024-02-14T06:38:25.687Z,96775.31
2024-02-14T06:40:52.395Z,96774.03
2024-02-14T06:43:19.123Z,96779.88
2024-02-14T06:45:45.826Z,96778.03
2024-02-14T06:48:12.672Z,96783.47
2024-02-14T06:50:39.890Z,96785.03
2024-02-14T06:53:07.520Z,96786.22
2024-02-14T06:55:34.260Z,96791.09
2024-02-14T06:58:01.259Z,96792.06
2024-02-14T07:00:29.741Z,96785.75
2024-02-14T07:02:56.728Z,96788.13
2024-02-14T07:05:23.624Z,96781.97
2024-02-14T07:07:51.036Z,96787.19
2024-02-14T07:10:18.250Z,96783.69
2024-02-14T07:12:44.964Z,96788.69
2024-02-14T07:15:12.539Z,96788.25
2024-02-14T07:17:42.412Z,96794.66
2024-02-14T07:20:10.502Z,96785.19
2024-02-14T07:22:37.619Z,96795.84
2024-02-14T07:25:06.271Z,96793.56
2024-02-14T07:27:33.302Z,96800.75
2024-02-14T07:30:00.382Z,96801.84
2024-02-14T07:32:28.980Z,96803.06
2024-02-14T07:34:55.860Z,96797.41
2024-02-14T07:37:22.776Z,96807.16
2024-02-14T07:39:49.547Z,96800.41
2024-02-14T07:42:16.596Z,96808.41
2024-02-14T07:44:44.034Z,96804.28
2024-02-14T07:47:10.948Z,96807.66
2024-02-14T07:49:37.696Z,96810.38
2024-02-14T07:52:04.945Z,96809.44
2024-02-14T07:54:31.815Z,96814.75
2024-02-14T07:56:58.521Z,96806.31
2024-02-14T07:59:25.258Z,96803.84
2024-02-14T08:01:52.110Z,96812.50
2024-02-14T08:04:18.831Z,96813.78
2024-02-14T08:06:51.609Z,96810.59
2024-02-14T08:09:18.373Z,96801.47
2024-02-14T08:11:45.096Z,96809.59
2024-02-14T08:14:12.641Z,96806.78
2024-02-14T08:16:39.336Z,96811.09
2024-02-14T08:19:06.190Z,96809.25
2024-02-14T08:21:33.258Z,96819.88
2024-02-14T08:24:01.485Z,96808.28
2024-02-14T08:26:29.781Z,96803.69
2024-02-14T08:28:56.808Z,96809.22
2024-02-14T08:31:23.827Z,96798.78
2024-02-14T08:33:51.125Z,96809.34
2024-02-14T08:36:20.175Z,96809.47
2024-02-14T08:38:47.123Z,96809.38
2024-02-14T08:41:13.851Z,96819.09
2024-02-14T08:43:41.556Z,96825.06
2024-02-14T08:46:12.513Z,96823.28
2024-02-14T08:48:47.210Z,96827.63
2024-02-14T08:51:14.969Z,96836.28
2024-02-14T08:53:43.843Z,96834.34
2024-02-14T08:56:10.563Z,96830.94
2024-02-14T08:58:37.393Z,96829.16
2024-02-14T09:01:13.035Z,96822.66
2024-02-14T09:03:44.878Z,96835.38
2024-02-14T09:06:11.756Z,96833.41
2024-02-14T09:08:38.872Z,96833.41
2024-02-14T09:11:05.574Z,96841.41
2024-02-14T09:13:32.290Z,96839.13
2024-02-14T09:15:59.022Z,96842.28
2024-02-14T09:18:26.788Z,96844.88
2024-02-14T09:20:54.097Z,96843.84
2024-02-14T09:23:21.889Z,96842.25
2024-02-14T09:25:48.610Z,96834.50
2024-02-14T09:28:17.170Z,96834.63
2024-02-14T09:30:43.956Z,96837.31
2024-02-14T09:33:11.052Z,96833.75
2024-02-14T09:35:41.023Z,96840.88
2024-02-14T09:38:07.792Z,96828.91
2024-02-14T09:40:34.932Z,96833.56
2024-02-14T09:43:05.591Z,96826.22
2024-02-14T09:45:35.061Z,96832.78
2024-02-14T09:48:02.725Z,96829.06
2024-02-14T09:50:32.189Z,96828.59
2024-02-14T09:53:00.015Z,96820.59
2024-02-14T09:55:27.920Z,96825.41
2024-02-14T09:57:56.023Z,96835.31
2024-02-14T10:00:23.635Z,96829.44
2024-02-14T10:02:51.296Z,96823.25
2024-02-14T10:05:18.162Z,96831.84
2024-02-14T10:07:45.569Z,96822.44
2024-02-14T10:10:12.891Z,96824.28
2024-02-14T10:12:41.605Z,96818.09
2024-02-14T10:15:09.438Z,96816.69
2024-02-14T10:17:36.242Z,96816.69
2024-02-14T10:20:07.670Z,96817.13
2024-02-14T10:22:36.804Z,96809.56
2024-02-14T10:25:09.993Z,96808.22
2024-02-14T10:27:38.857Z,96811.09
2024-02-14T10:30:11.344Z,96803.50
2024-02-14T10:32:39.616Z,96801.22
2024-02-14T10:35:14.520Z,96795.53
2024-02-14T10:37:41.597Z,96795.88
2024-02-14T10:40:10.157Z,96793.59
2024-02-14T10:42:36.943Z,96788.72
2024-02-14T10:45:04.938Z,96786.91
2024-02-14T10:47:33.734Z,96780.63
2024-02-14T10:50:03.734Z,96785.50
2024-02-14T10:52:36.381Z,96790.09
2024-02-14T10:55:05.433Z,96800.22
2024-02-14T10:57:33.462Z,96793.81
2024-02-14T11:00:04.437Z,96779.28
2024-02-14T11:02:33.738Z,96777.72
2024-02-14T11:05:01.874Z,96784.13
2024-02-14T11:07:29.982Z,96777.97
2024-02-14T11:10:06.084Z,96780.78
2024-02-14T11:12:37.952Z,96773.63
2024-02-14T11:15:17.535Z,96777.56
2024-02-14T11:17:44.768Z,96773.56
2024-02-14T11:20:36.204Z,96775.38
2024-02-14T11:23:12.187Z,96770.97
2024-02-14T11:25:39.753Z,96769.78
2024-02-14T11:28:24.724Z,96767.81
2024-02-14T11:30:51.538Z,96767.03
2024-02-14T11:33:20.393Z,96766.50
2024-02-14T11:35:51.286Z,96766.28
2024-02-14T11:38:19.201Z,96764.47
2024-02-14T11:40:46.212Z,96763.63
2024-02-14T11:43:15.631Z,96760.34
2024-02-14T11:45:43.287Z,96770.19
2024-02-14T11:48:14.170Z,96757.19
2024-02-14T11:50:42.722Z,96767.16
2024-02-14T11:53:12.121Z,96770.13
2024-02-14T11:55:39.477Z,96775.06
2024-02-14T11:58:13.935Z,96775.97
2024-02-14T12:00:45.752Z,96770.88
2024-02-14T12:03:14.651Z,96761.81
2024-02-14T12:05:44.458Z,96750.72
2024-02-14T12:08:11.948Z,96753.91
2024-02-14T12:10:39.064Z,96743.94
2024-02-14T12:13:07.531Z,96749.56
2024-02-14T12:15:48.568Z,96741.31
2024-02-14T12:18:17.328Z,96741.25
2024-02-14T12:20:45.249Z,96733.13
2024-02-14T12:23:18.776Z,96739.88
2024-02-14T12:25:48.627Z,96728.44
2024-02-14T12:28:18.369Z,96734.63
2024-02-14T12:30:51.273Z,96733.28
2024-02-14T12:33:18.437Z,96730.78
2024-02-14T12:35:47.768Z,96735.91
2024-02-14T12:38:17.598Z,96741.44
2024-02-14T12:40:47.612Z,96737.41
2024-02-14T12:43:17.063Z,96738.09
2024-02-14T12:45:45.176Z,96742.78
2024-02-14T12:48:15.029Z,96736.50
2024-02-14T12:50:48.963Z,96721.22
2024-02-14T12:53:15.804Z,96719.78
2024-02-14T12:55:42.817Z,96731.13
2024-02-14T12:58:10.952Z,96722.41
2024-02-14T13:00:39.246Z,96731.31
2024-02-14T13:03:06.482Z,96738.63
2024-02-14T13:05:33.469Z,96733.03
2024-02-14T13:08:00.185Z,96743.84
2024-02-14T13:10:26.879Z,96736.38
2024-02-14T13:12:53.642Z,96739.28
2024-02-14T13:15:20.407Z,96732.34
2024-02-14T13:17:47.501Z,96730.25
2024-02-14T13:20:16.404Z,96728.72
2024-02-14T13:22:45.944Z,96719.69
2024-02-14T13:25:15.270Z,96714.59
2024-02-14T13:27:45.681Z,96705.91
2024-02-14T13:30:12.787Z,96712.47
2024-02-14T13:32:39.687Z,96707.56
2024-02-14T13:35:10.724Z,96707.09
2024-02-14T13:37:37.511Z,96695.63
2024-02-14T13:40:10.085Z,96694.25
2024-02-14T13:42:38.959Z,96689.84
2024-02-14T13:45:11.226Z,96689.66
2024-02-14T13:47:43.615Z,96691.28
2024-02-14T13:50:10.993Z,96702.81
2024-02-14T13:52:37.867Z,96696.00
2024-02-14T13:55:06.690Z,96687.25
2024-02-14T13:57:38.020Z,96690.22
2024-02-14T14:00:05.785Z,96686.03
2024-02-14T14:02:32.700Z,96686.03
2024-02-14T14:04:59.546Z,96692.78
2024-02-14T14:07:26.230Z,96681.16
2024-02-14T14:09:52.933Z,96691.09
2024-02-14T14:12:19.615Z,96688.34
2024-02-14T14:14:46.361Z,96689.59
2024-02-14T14:17:13.160Z,96681.59
2024-02-14T14:19:40.816Z,96684.28
2024-02-14T14:22:07.582Z,96692.03
2024-02-14T14:24:34.418Z,96690.88
2024-02-14T14:27:01.200Z,96691.81
2024-02-14T14:29:29.278Z,96689.38
2024-02-14T14:31:56.009Z,96685.84
2024-02-14T14:34:23.571Z,96683.91
2024-02-14T14:36:50.407Z,96686.09
2024-02-14T14:39:17.172Z,96683.91
2024-02-14T14:41:44.976Z,96691.50
2024-02-14T14:44:12.887Z,96687.31
2024-02-14T14:46:43.173Z,96690.88
2024-02-14T14:49:11.120Z,96692.47
2024-02-14T14:51:39.399Z,96688.13
2024-02-14T14:54:06.437Z,96689.84
2024-02-14T14:56:33.118Z,96697.06
2024-02-14T14:59:01.051Z,96681.22
2024-02-14T15:01:28.933Z,96681.72
2024-02-14T15:03:55.699Z,96686.28
2024-02-14T15:06:23.131Z,96680.22
2024-02-14T15:08:50.220Z,96673.81
2024-02-14T15:11:19.034Z,96686.25
2024-02-14T15:13:47.013Z,96696.63
2024-02-14T15:16:14.517Z,96695.06
2024-02-14T15:18:44.495Z,96691.91
2024-02-14T15:21:14.909Z,96699.06
2024-02-14T15:23:42.097Z,96693.66
2024-02-14T15:26:13.211Z,96696.75
2024-02-14T15:28:42.792Z,96694.34
2024-02-14T15:31:28.081Z,96695.00
2024-02-14T15:33:56.860Z,96688.34
2024-02-14T15:36:23.920Z,96687.78
2024-02-14T15:38:52.800Z,96699.22
2024-02-14T15:41:19.537Z,96709.97
2024-02-14T15:43:46.594Z,96716.03
2024-02-14T15:46:13.615Z,96711.59
2024-02-14T15:48:42.377Z,96714.28
2024-02-14T15:51:10.250Z,96720.25
2024-02-14T15:53:39.199Z,96726.16
2024-02-14T15:56:06.970Z,96732.22
2024-02-14T15:58:33.734Z,96733.53
2024-02-14T16:01:00.453Z,96735.63
2024-02-14T16:03:28.043Z,96741.53
2024-02-14T16:05:55.011Z,96737.03
2024-02-14T16:08:22.612Z,96737.84
2024-02-14T16:10:50.665Z,96743.22
2024-02-14T16:13:17.982Z,96744.06
2024-02-14T16:15:44.765Z,96751.31
2024-02-14T16:18:11.551Z,96744.84
2024-02-14T16:20:38.432Z,96752.09
2024-02-14T16:23:06.949Z,96741.16
2024-02-14T16:25:36.719Z,96735.84
2024-02-14T16:28:03.891Z,96745.00
2024-02-14T16:30:30.662Z,96737.19
2024-02-14T16:32:58.170Z,96739.09
2024-02-14T16:35:25.679Z,96731.59
2024-02-14T16:37:52.400Z,96742.88
2024-02-14T16:40:19.225Z,96745.03
2024-02-14T16:42:45.934Z,96743.94
2024-02-14T16:45:14.018Z,96741.31
2024-02-14T16:47:42.480Z,96740.75
2024-02-14T16:50:09.641Z,96749.34
2024-02-14T16:52:36.764Z,96746.09
2024-02-14T16:55:04.629Z,96741.50
2024-02-14T16:57:31.538Z,96753.03
2024-02-14T16:59:58.406Z,96751.19
2024-02-14T17:02:25.577Z,96749.28
2024-02-14T17:04:52.248Z,96755.72
2024-02-14T17:07:19.238Z,96764.03
2024-02-14T17:09:46.469Z,96764.03
2024-02-14T17:12:13.288Z,96770.22
2024-02-14T17:14:42.364Z,96770.22
2024-02-14T17:17:10.872Z,96768.34
2024-02-14T17:19:37.745Z,96774.00
2024-02-14T17:22:13.720Z,96780.69
2024-02-14T17:24:46.555Z,96783.63
2024-02-14T17:27:13.607Z,96781.47
2024-02-14T17:29:40.459Z,96775.84
2024-02-14T17:32:12.430Z,96772.91
2024-02-14T17:34:43.935Z,96770.78
2024-02-14T17:37:10.664Z,96764.34
2024-02-14T17:39:37.382Z,96778.78
2024-02-14T17:42:04.437Z,96777.19
2024-02-14T17:44:31.132Z,96776.66
2024-02-14T17:46:57.786Z,96778.81
2024-02-14T17:49:24.848Z,96779.88
2024-02-14T17:51:52.801Z,96786.31
2024-02-14T17:54:19.746Z,96784.16
2024-02-14T17:56:46.507Z,96785.78
2024-02-14T17:59:15.546Z,96783.63
2024-02-14T18:01:45.889Z,96789.50
2024-02-14T18:04:12.660Z,96795.44
2024-02-14T18:06:39.450Z,96791.13
2024-02-14T18:09:08.452Z,96786.84
2024-02-14T18:11:35.780Z,96788.44
2024-02-14T18:14:02.509Z,96789.25
2024-02-14T18:16:29.277Z,96792.19
2024-02-14T18:18:56.356Z,96787.38
2024-02-14T18:21:23.247Z,96788.97
2024-02-14T18:23:51.153Z,96783.38
2024-02-14T18:26:18.125Z,96785.78
2024-02-14T18:28:44.925Z,96783.34
2024-02-14T18:31:13.383Z,96788.19
2024-02-14T18:33:40.384Z,96786.03
2024-02-14T18:36:09.043Z,96777.75
2024-02-14T18:38:37.329Z,96773.44
2024-02-14T18:41:04.309Z,96775.06
2024-02-14T18:43:32.725Z,96772.38
2024-02-14T18:45:59.432Z,96783.63
2024-02-14T18:48:26.388Z,96771.31
2024-02-14T18:50:53.584Z,96782.56
2024-02-14T18:53:20.334Z,96778.78
2024-02-14T18:55:47.085Z,96780.38
2024-02-14T18:58:13.865Z,96778.22
2024-02-14T19:00:40.981Z,96777.97
2024-02-14T19:03:07.778Z,96778.25
2024-02-14T19:05:34.546Z,96788.47
2024-02-14T19:08:01.215Z,96789.50
2024-02-14T19:10:27.892Z,96790.56
2024-02-14T19:12:54.624Z,96791.34
2024-02-14T19:15:21.806Z,96790.00
2024-02-14T19:17:50.220Z,96794.56
2024-02-14T19:20:16.979Z,96787.84
2024-02-14T19:22:44.290Z,96793.75
2024-02-14T19:25:11.381Z,96785.19
2024-02-14T19:27:40.931Z,96789.44
2024-02-14T19:30:08.133Z,96788.13
2024-02-14T19:32:40.050Z,96791.59
2024-02-14T19:35:07.484Z,96796.69
2024-02-14T19:37:34.233Z,96788.91
2024-02-14T19:40:01.857Z,96798.03
2024-02-14T19:42:29.763Z,96794.00
2024-02-14T19:44:57.322Z,96795.88
2024-02-14T19:47:24.103Z,96794.28
2024-02-14T19:49:50.802Z,96794.25
2024-02-14T19:52:17.754Z,96789.19
2024-02-14T19:54:44.914Z,96790.00
2024-02-14T19:57:11.564Z,96785.44
2024-02-14T19:59:38.756Z,96784.09
2024-02-14T20:02:05.684Z,96778.75
2024-02-14T20:04:33.102Z,96771.25
2024-02-14T20:07:01.536Z,96769.13
2024-02-14T20:09:28.244Z,96760.81
2024-02-14T20:11:54.921Z,96766.44
2024-02-14T20:14:22.268Z,96762.69
2024-02-14T20:16:49.058Z,96759.50
2024-02-14T20:19:16.088Z,96757.31
2024-02-14T20:21:43.003Z,96756.53
2024-02-14T20:24:11.006Z,96761.63
2024-02-14T20:26:39.165Z,96758.38
2024-02-14T20:29:07.292Z,96764.81
2024-02-14T20:31:36.307Z,96778.72
2024-02-14T20:34:05.632Z,96762.38
2024-02-14T20:36:34.881Z,96763.72
2024-02-14T20:39:03.745Z,96759.69
2024-02-14T20:41:31.235Z,96759.94
2024-02-14T20:43:58.389Z,96756.47
2024-02-14T20:46:25.237Z,96751.38
2024-02-14T20:48:53.075Z,96753.22
2024-02-14T20:51:20.120Z,96761.78
2024-02-14T20:53:46.898Z,96760.09
2024-02-14T20:56:13.652Z,96765.94
2024-02-14T20:58:52.162Z,96754.72
2024-02-14T21:01:28.043Z,96747.53
2024-02-14T21:03:54.771Z,96750.25
2024-02-14T21:06:21.741Z,96741.16
2024-02-14T21:08:48.757Z,96748.63
2024-02-14T21:11:15.559Z,96761.97
2024-02-14T21:13:42.229Z,96759.56
2024-02-14T21:16:08.902Z,96767.81
2024-02-14T21:18:35.663Z,96769.13
2024-02-14T21:21:03.008Z,96765.63
2024-02-14T21:23:29.822Z,96766.66
2024-02-14T21:25:56.502Z,96769.25
2024-02-14T21:28:23.383Z,96771.38
2024-02-14T21:30:50.057Z,96755.09
2024-02-14T21:33:17.546Z,96768.13
2024-02-14T21:35:47.857Z,96762.22
2024-02-14T21:38:16.979Z,96752.88
2024-02-14T21:40:44.206Z,96763.09
2024-02-14T21:43:10.765Z,96764.44
2024-02-14T21:45:37.604Z,96759.09
2024-02-14T21:48:04.863Z,96761.22
2024-02-14T21:50:33.350Z,96768.19
2024-02-14T21:53:00.119Z,96770.84
2024-02-14T21:55:26.823Z,96762.00
2024-02-14T21:57:53.489Z,96753.97
2024-02-14T22:00:20.492Z,96760.00
2024-02-14T22:02:51.260Z,96757.84
2024-02-14T22:05:22.802Z,96750.09
2024-02-14T22:07:49.806Z,96754.13
2024-02-14T22:10:16.795Z,96757.31
2024-02-14T22:12:43.982Z,96757.31
2024-02-14T22:15:11.169Z,96751.97
2024-02-14T22:17:39.071Z,96748.22
2024-02-14T22:20:07.464Z,96755.41
2024-02-14T22:22:36.560Z,96752.47
2024-02-14T22:25:03.413Z,96749.81
2024-02-14T22:27:30.076Z,96746.06
2024-02-14T22:29:56.908Z,96740.97
2024-02-14T22:32:24.020Z,96746.31
2024-02-14T22:34:52.157Z,96740.16
2024-02-14T22:37:19.114Z,96741.94
2024-02-14T22:39:45.838Z,96738.41
2024-02-14T22:42:12.987Z,96738.66
2024-02-14T22:44:40.120Z,96737.88
2024-02-14T22:47:10.764Z,96735.19
2024-02-14T22:49:37.814Z,96731.13
2024-02-14T22:52:08.111Z,96732.94
2024-02-14T22:54:34.781Z,96733.94
2024-02-14T22:57:01.542Z,96732.16
2024-02-14T22:59:28.319Z,96735.78
2024-02-14T23:01:54.995Z,96735.97
2024-02-14T23:04:21.696Z,96734.63
2024-02-14T23:06:48.434Z,96737.94
2024-02-14T23:09:16.219Z,96732.16
2024-02-14T23:11:43.463Z,96734.34
2024-02-14T23:14:10.362Z,96736.56
2024-02-14T23:16:37.322Z,96737.16
2024-02-14T23:19:04.509Z,96738.81
2024-02-14T23:21:31.903Z,96739.94
2024-02-14T23:23:58.546Z,96741.59
2024-02-14T23:26:25.410Z,96741.06
2024-02-14T23:28:52.142Z,96736.50
2024-02-14T23:31:21.658Z,96743.47
2024-02-14T23:33:48.978Z,96746.16
2024-02-14T23:36:16.879Z,96747.81
2024-02-14T23:38:45.278Z,96748.41
2024-02-14T23:41:12.265Z,96749.81
2024-02-14T23:43:40.416Z,96740.44
2024-02-14T23:46:07.910Z,96745.00
2024-02-14T23:48:34.978Z,96742.84
2024-02-14T23:51:02.104Z,96744.91
2024-02-14T23:53:28.978Z,96740.91
2024-02-14T23:55:57.807Z,96747.06
2024-02-14T23:58:28.913Z,96743.44
